College City, California
Current Conditions -  °F | °C
As of 3:53 AM on Monday 20 Oct 2014 (Local Time) from KMYV Reporting Station
Clear Clear  
Wind Chill: 59°   Ceiling: Unl
Heat Index: 59°   Visibility: 10mi
Dew Point: 56°   Wind: 9mph
Humidity: 90%   Direction: 150°SSE
Pressure: 29.87"   Gusts: NA
Location:  39.01°N, 122.01°W
Report Text: KMYV 201053Z AUTO 15008KT 10SM CLR 15/13 A2987 RMK AO2 SLP118 T01500133
Loading
Personal Weather Stations






























Interactive Weather Map
Tropical Storm Tracking
New forecast layout! Learn more

10-Day Weather Forecast

Advertisements
Track Severe Weather on mobile